Flight Track Log - Related Links

Times and Time Zones

All times are in EDT time to prevent confusion due to time zone crossing. See the CTL17 flight status page for this flight to view local times or setup timezone preferences in your user account.

Time Position Orientation Groundspeed Altitude Reporting Facility
EDT Latitude Longitude Course Direction KTS MPH feet Rate Location/Type
Tue 05:31:10 PM 42.2044 -83.5742 226° Southwest 121 139 1,700  Level Cleveland Center
Tue 05:32:11 PM 42.1786 -83.6067 223° Southwest 134 154 2,500 689 Climbing Cleveland Center
Tue 05:33:12 PM 42.1408 -83.6133 187° South 151 174 3,100 344 Climbing Cleveland Center
Tue 05:34:13 PM 42.0975 -83.6028 170° South 158 182 3,200  Climbing Cleveland Center
Tue 05:35:14 PM 42.0583 -83.5842 161° South 176 203 3,100 -50 Descending Cleveland Center
Tue 05:36:14 PM 42.0369 -83.5189 114° Southeast 180 207 3,100  Level Cleveland Center
Tue 05:37:15 PM 42.0197 -83.4564 110° East 174 200 3,100  Level Cleveland Center
Tue 05:38:16 PM 42.0025 -83.3942 110° East 179 206 3,100  Level Cleveland Center
Tue 05:39:17 PM 41.9853 -83.3347 111° Southeast 176 203 3,100 393 Level Cleveland Center
Tue 05:40:18 PM 41.9617 -83.2808 120° Southeast 156 180 3,900 738 Climbing Cleveland Center
Tue 05:41:19 PM 41.9442 -83.2269 114° Southeast 153 176 4,600 590 Climbing Cleveland Center
Tue 05:42:20 PM 41.9286 -83.1706 110° East 160 184 5,100 248 Climbing Cleveland Center
Tue 05:43:20 PM 41.9114 -83.1028 109° East 190 219 5,100  Level Cleveland Center
Tue 05:44:21 PM 41.8983 -83.0381 105° East 194 223 5,100  Level Cleveland Center
Tue 05:45:22 PM 41.8789 -82.9675 110° East 199 229 5,100  Level Cleveland Center
Tue 05:46:08 PM 41.8611 -82.9139 114° Southeast 197 227 5,100  Level Cleveland Center
Tue 05:47:09 PM 41.8439 -82.8464 109° East 194 223 5,100  Level Cleveland Center
Tue 05:48:40 PM 41.8144 -82.7450 111° Southeast 190 219 5,100  Level Cleveland Center
Tue 05:49:11 PM 41.8089 -82.7114 102° East 189 217 5,100  Level Cleveland Center
Tue 05:50:17 PM 41.7936 -82.6358 105° East 192 221 5,100  Level Cleveland Center
Tue 05:51:18 PM 41.7781 -82.5628 106° East 196 226 5,100  Level Cleveland Center
Tue 05:52:31 PM 41.7567 -82.4786 109° East 199 229 5,100  Level Cleveland Center
Tue 05:53:26 PM 41.7411 -82.4142 108° East 198 228 5,100  Level Cleveland Center
Tue 05:54:26 PM 41.7256 -82.3414 106° East 199 229 5,100 -99 Level Cleveland Center
Tue 05:55:27 PM 41.7142 -82.2689 102° East 202 232 4,900 -469 Descending Cleveland Center
Tue 05:56:34 PM 41.6944 -82.1822 107° East 213 245 4,100 -375 Descending Cleveland Center
Tue 05:57:35 PM 41.6872 -82.1069 97° East 197 227 4,100 -215 Level Cleveland Center
Tue 05:59:49 PM 41.6831 -81.9372 92° East 212 244 3,400 -338 Descending Cleveland Center
Tue 06:00:50 PM 41.6714 -81.8647 102° East 205 236 3,000 -595 Descending Cleveland Center
Tue 06:01:50 PM 41.6556 -81.7892 106° East 206 237 2,200 -545 Descending Cleveland Center
Tue 06:02:51 PM 41.6269 -81.7386 127° Southeast 176 203 1,900 -328 Descending Cleveland Center
Tue 06:03:58 PM 41.5836 -81.6936 142° Southeast 170 196 1,500 -218 Descending Cleveland Center
Tue 06:04:41 PM 41.5608 -81.6681 140° Southeast 156 180 1,500  Level Cleveland Center

Login

Don't have an account? Register now (free) for customized features, flight alerts, and more!